Time;durP1;ratioP1;P1;durP2;ratioP2;P2;SDS_P1;SDS_P2;PMS_P1;PMS_P2;Temp;Humidity;BMP_temperature;BMP_pressure;BME280_temperature;BME280_humidity;BME280_pressure;Samples;Min_cycle;Max_cycle;Signal;HPM_P1;HPM_P2
2023/09/14 00:01:23;;;;;;;3.30;1.30;;;;;;;23.48;59.69;99366.25;4462418;32;33664;-77
2023/09/14 00:03:52;;;;;;;1.55;1.00;;;;;;;23.53;59.24;99379.97;4474411;32;34098;-79
2023/09/14 00:06:21;;;;;;;1.50;0.95;;;;;;;23.19;59.63;99379.75;4465693;32;33915;-78
2023/09/14 00:08:50;;;;;;;2.15;1.02;;;;;;;23.27;59.71;99376.56;4461775;32;34336;-78
2023/09/14 00:11:19;;;;;;;1.45;0.95;;;;;;;23.17;60.69;99381.69;4467805;32;33980;-80
2023/09/14 00:13:48;;;;;;;1.87;0.98;;;;;;;22.97;61.92;99377.72;4471543;32;33671;-78
2023/09/14 00:16:18;;;;;;;4.72;2.67;;;;;;;22.77;63.09;99378.25;4469371;32;34049;-77
2023/09/14 00:18:47;;;;;;;2.35;1.08;;;;;;;22.39;64.62;99384.34;4469463;32;34101;-79
2023/09/14 00:21:16;;;;;;;14.02;1.75;;;;;;;22.08;66.17;99373.12;4462285;32;33623;-78
2023/09/14 00:23:45;;;;;;;1.65;1.05;;;;;;;22.02;66.58;99372.72;4461952;32;34078;-80
2023/09/14 00:26:16;;;;;;;1.20;0.90;;;;;;;22.12;66.47;99372.00;4466668;32;34965;-79
2023/09/14 00:28:46;;;;;;;2.17;1.40;;;;;;;22.02;66.84;99368.25;4473985;32;34660;-79
2023/09/14 00:31:17;;;;;;;3.50;1.40;;;;;;;21.84;67.79;99362.41;4475975;32;33866;-78
2023/09/14 00:33:46;;;;;;;2.30;1.30;;;;;;;21.85;67.84;99352.69;4473812;32;34102;-79
2023/09/14 00:36:15;;;;;;;2.20;1.30;;;;;;;21.97;67.53;99354.50;4462714;32;34200;-78
2023/09/14 00:38:44;;;;;;;2.17;1.20;;;;;;;21.96;67.71;99344.87;4466046;32;34473;-78
2023/09/14 00:41:13;;;;;;;2.42;1.45;;;;;;;21.74;68.52;99341.00;4468035;32;34951;-79
2023/09/14 00:43:42;;;;;;;2.55;1.37;;;;;;;21.79;68.42;99331.94;4472451;32;34034;-78
2023/09/14 00:46:11;;;;;;;2.75;1.30;;;;;;;21.68;68.85;99314.16;4469697;32;34077;-78
2023/09/14 00:48:42;;;;;;;1.65;1.10;;;;;;;21.77;68.63;99307.44;4467509;32;33564;-78
2023/09/14 00:51:11;;;;;;;4.43;1.75;;;;;;;21.82;68.31;99313.25;4470592;32;33475;-78
2023/09/14 00:53:40;;;;;;;5.18;1.65;;;;;;;21.92;68.04;99301.16;4466702;32;34214;-78
2023/09/14 00:56:08;;;;;;;2.22;1.52;;;;;;;21.86;68.26;99299.75;4462565;32;34004;-78
2023/09/14 00:58:37;;;;;;;2.12;1.20;;;;;;;21.95;67.83;99296.50;4477536;32;34451;-79
2023/09/14 01:01:07;;;;;;;3.05;1.70;;;;;;;21.91;67.81;99286.25;4483054;32;34158;-79
2023/09/14 01:03:35;;;;;;;2.92;1.73;;;;;;;22.04;67.32;99289.78;4477461;32;33827;-79
2023/09/14 01:06:06;;;;;;;2.37;1.62;;;;;;;22.15;66.68;99299.59;4477413;32;35277;-80
2023/09/14 01:08:35;;;;;;;2.20;1.12;;;;;;;21.85;67.58;99297.22;4468713;32;33349;-78
2023/09/14 01:11:07;;;;;;;2.97;1.52;;;;;;;22.17;66.57;99300.34;4461717;32;33898;-80
2023/09/14 01:13:55;;;;;;;2.37;1.33;;;;;;;22.33;65.82;99297.56;4469974;32;34045;-79
2023/09/14 01:16:27;;;;;;;2.92;1.27;;;;;;;22.20;66.41;99299.28;4477477;32;34003;-78
2023/09/14 01:19:02;;;;;;;2.62;1.52;;;;;;;22.01;67.07;99303.19;4477155;31;34697;-80
2023/09/14 01:22:03;;;;;;;2.40;1.48;;;;;;;21.96;67.38;99302.63;4474932;32;33862;-79
2023/09/14 01:24:41;;;;;;;2.08;1.27;;;;;;;22.25;66.44;99287.47;4449887;32;35056;-78
2023/09/14 01:27:12;;;;;;;1.85;1.27;;;;;;;22.20;66.55;99292.25;4465533;32;34306;-78
2023/09/14 01:29:41;;;;;;;1.65;1.23;;;;;;;22.02;67.21;99302.22;4466521;32;33506;-78
2023/09/14 01:32:11;;;;;;;3.35;1.35;;;;;;;22.28;66.08;99289.09;4471672;32;35010;-78
2023/09/14 01:34:40;;;;;;;1.55;0.93;;;;;;;22.16;66.53;99282.81;4465626;32;34262;-78
2023/09/14 01:37:09;;;;;;;2.47;1.37;;;;;;;22.19;66.44;99266.75;4466691;32;34043;-80
2023/09/14 01:39:38;;;;;;;3.55;1.77;;;;;;;22.40;65.48;99267.13;4475808;32;33871;-78
2023/09/14 01:42:07;;;;;;;3.40;1.60;;;;;;;22.33;65.76;99266.69;4472064;32;33588;-79
2023/09/14 01:44:37;;;;;;;2.75;1.60;;;;;;;22.45;65.15;99265.00;4472497;32;34150;-79
2023/09/14 01:47:06;;;;;;;1.93;1.50;;;;;;;22.06;66.52;99265.88;4459801;32;34400;-78
2023/09/14 01:49:35;;;;;;;2.55;1.42;;;;;;;22.47;64.88;99257.81;4472623;32;34764;-78
2023/09/14 01:52:04;;;;;;;1.45;1.02;;;;;;;22.33;65.41;99257.91;4467597;32;33260;-78
2023/09/14 01:54:33;;;;;;;1.98;1.15;;;;;;;22.48;64.74;99266.59;4464567;32;33730;-79
2023/09/14 01:57:01;;;;;;;3.33;1.35;;;;;;;22.49;64.50;99277.03;4467894;32;34812;-78
2023/09/14 01:59:30;;;;;;;2.75;1.05;;;;;;;22.29;65.52;99288.12;4465403;32;33408;-79
2023/09/14 02:02:00;;;;;;;2.53;1.10;;;;;;;22.01;67.04;99287.34;4473498;32;33850;-79
2023/09/14 02:04:29;;;;;;;2.20;0.95;;;;;;;21.76;68.51;99290.75;4465302;32;33471;-79
2023/09/14 02:06:58;;;;;;;1.20;1.00;;;;;;;21.38;70.42;99285.28;4459427;32;34795;-80
2023/09/14 02:09:26;;;;;;;2.17;1.52;;;;;;;21.48;70.53;99281.12;4460036;32;33028;-79
2023/09/14 02:11:55;;;;;;;2.47;1.40;;;;;;;21.30;71.52;99289.25;4469113;32;33690;-78
2023/09/14 02:14:24;;;;;;;2.72;1.37;;;;;;;21.36;71.53;99289.81;4473649;32;33689;-78
2023/09/14 02:16:53;;;;;;;3.20;1.23;;;;;;;21.20;72.54;99289.94;4464247;32;33877;-79
2023/09/14 02:19:25;;;;;;;3.47;1.62;;;;;;;21.09;73.30;99296.75;4460078;32;34975;-78
2023/09/14 02:21:54;;;;;;;3.80;1.52;;;;;;;20.90;74.42;99301.50;4460876;32;33415;-78
2023/09/14 02:24:23;;;;;;;2.10;1.48;;;;;;;20.80;74.74;99295.94;4466245;32;34318;-78
2023/09/14 02:26:54;;;;;;;1.85;1.12;;;;;;;20.72;75.45;99303.44;4467883;32;35168;-79
2023/09/14 02:29:22;;;;;;;2.35;1.62;;;;;;;20.73;75.67;99299.91;4470180;32;33647;-78
2023/09/14 02:31:51;;;;;;;2.20;1.10;;;;;;;20.96;74.28;99311.62;4474619;32;33841;-78
2023/09/14 02:34:20;;;;;;;3.30;1.62;;;;;;;20.89;74.42;99316.44;4468789;32;33821;-78
2023/09/14 02:36:50;;;;;;;2.08;1.30;;;;;;;20.54;76.05;99313.31;4459816;32;34744;-78
2023/09/14 02:39:19;;;;;;;3.12;1.35;;;;;;;20.69;75.74;99305.44;4460217;32;34097;-78
2023/09/14 02:41:48;;;;;;;2.60;1.42;;;;;;;20.77;75.52;99311.94;4460229;32;33742;-79
2023/09/14 02:44:16;;;;;;;2.00;1.42;;;;;;;20.98;74.19;99299.22;4463577;32;33544;-79
2023/09/14 02:46:45;;;;;;;3.15;1.37;;;;;;;21.02;74.00;99308.63;4467806;32;33886;-78
2023/09/14 02:49:14;;;;;;;3.20;1.35;;;;;;;21.03;73.87;99317.38;4460896;32;33948;-78
2023/09/14 02:51:42;;;;;;;2.90;1.27;;;;;;;20.95;74.25;99311.72;4464020;32;33561;-78
2023/09/14 02:54:13;;;;;;;3.87;1.98;;;;;;;20.97;73.96;99312.47;4472011;32;35258;-78
2023/09/14 02:56:41;;;;;;;2.22;1.25;;;;;;;20.96;74.21;99319.56;4481386;32;34289;-78
2023/09/14 02:59:10;;;;;;;1.98;1.12;;;;;;;21.08;73.41;99320.59;4463265;32;34664;-78
2023/09/14 03:01:39;;;;;;;2.62;1.45;;;;;;;20.83;74.22;99316.00;4464549;32;34159;-77
2023/09/14 03:04:08;;;;;;;3.72;1.73;;;;;;;20.77;74.50;99317.19;4459906;32;33766;-78
2023/09/14 03:06:38;;;;;;;2.67;1.50;;;;;;;20.70;75.30;99321.16;4461838;32;34129;-78
2023/09/14 03:09:07;;;;;;;4.72;1.65;;;;;;;20.66;75.60;99322.28;4474158;32;33157;-78
2023/09/14 03:11:37;;;;;;;2.50;1.50;;;;;;;20.78;74.94;99318.91;4464642;32;34960;-78
2023/09/14 03:14:06;;;;;;;2.57;1.30;;;;;;;20.92;74.42;99320.69;4463050;32;34641;-78
2023/09/14 03:16:35;;;;;;;2.15;1.40;;;;;;;20.98;73.80;99327.38;4469879;32;34563;-79
2023/09/14 03:19:04;;;;;;;1.90;1.30;;;;;;;20.96;73.87;99327.47;4473810;32;34269;-78
2023/09/14 03:21:32;;;;;;;2.03;1.12;;;;;;;20.71;74.82;99327.25;4476425;32;33763;-79
2023/09/14 03:24:01;;;;;;;2.60;1.10;;;;;;;20.83;74.27;99324.75;4466308;32;35274;-78
2023/09/14 03:26:30;;;;;;;1.58;1.08;;;;;;;20.74;74.55;99329.72;4460291;32;34762;-78
2023/09/14 03:29:00;;;;;;;2.95;1.62;;;;;;;20.95;73.39;99325.78;4473748;32;33227;-79
2023/09/14 03:31:29;;;;;;;1.90;1.30;;;;;;;21.11;72.73;99325.66;4472752;32;33192;-79
2023/09/14 03:33:58;;;;;;;2.45;1.40;;;;;;;21.06;72.91;99333.00;4460578;32;34046;-80
2023/09/14 03:36:28;;;;;;;2.75;1.40;;;;;;;21.22;72.23;99332.91;4467512;32;34847;-78
2023/09/14 03:38:59;;;;;;;1.95;1.30;;;;;;;21.25;72.34;99332.72;4459555;32;33627;-77
2023/09/14 03:41:28;;;;;;;2.80;1.10;;;;;;;21.34;71.79;99333.94;4466831;32;33514;-79
2023/09/14 03:43:57;;;;;;;1.83;1.10;;;;;;;21.34;71.83;99339.22;4465884;32;35045;-78
2023/09/14 03:46:27;;;;;;;4.70;1.10;;;;;;;21.07;73.17;99340.84;4474755;32;35127;-79
2023/09/14 03:48:56;;;;;;;1.87;1.10;;;;;;;21.20;72.72;99340.06;4464590;32;34456;-79
2023/09/14 03:51:25;;;;;;;2.45;1.27;;;;;;;21.08;73.13;99341.69;4471276;32;33709;-78
2023/09/14 03:53:54;;;;;;;3.05;1.60;;;;;;;20.95;74.18;99340.72;4473793;32;34970;-77
2023/09/14 03:56:22;;;;;;;2.75;1.33;;;;;;;20.97;74.06;99341.50;4464456;32;35226;-78
2023/09/14 03:58:51;;;;;;;2.17;1.42;;;;;;;20.97;74.20;99357.31;4466665;32;33145;-79
2023/09/14 04:01:20;;;;;;;2.60;1.40;;;;;;;20.98;73.85;99351.13;4466820;32;33575;-80
2023/09/14 04:03:50;;;;;;;5.55;2.55;;;;;;;20.85;74.66;99357.12;4469247;32;34372;-78
2023/09/14 04:06:23;;;;;;;3.12;1.37;;;;;;;20.81;74.91;99367.97;4461833;32;34883;-78
2023/09/14 04:08:52;;;;;;;2.72;1.35;;;;;;;20.71;75.21;99369.44;4461718;32;33119;-80
2023/09/14 04:11:20;;;;;;;2.85;1.52;;;;;;;21.02;73.97;99360.50;4468328;32;35481;-79
2023/09/14 04:13:49;;;;;;;3.05;1.67;;;;;;;20.95;74.22;99372.38;4473535;32;34102;-79
2023/09/14 04:16:18;;;;;;;2.40;1.23;;;;;;;20.87;74.39;99373.69;4464825;32;33818;-79
2023/09/14 04:18:47;;;;;;;1.52;1.10;;;;;;;20.77;75.33;99375.19;4461766;32;33454;-78
2023/09/14 04:21:17;;;;;;;3.72;1.70;;;;;;;20.63;75.86;99372.53;4472943;32;35061;-79
2023/09/14 04:23:47;;;;;;;3.20;1.60;;;;;;;20.86;74.64;99377.28;4463907;32;34046;-79
2023/09/14 04:26:16;;;;;;;3.65;1.50;;;;;;;20.79;74.96;99368.03;4465697;32;34549;-78
2023/09/14 04:28:44;;;;;;;2.12;1.42;;;;;;;20.58;76.04;99385.97;4460771;32;33171;-76
2023/09/14 04:31:14;;;;;;;4.57;2.00;;;;;;;20.63;76.15;99367.25;4469033;32;34891;-79
2023/09/14 04:33:43;;;;;;;4.25;2.05;;;;;;;20.78;75.28;99374.28;4473223;32;34040;-79
2023/09/14 04:36:12;;;;;;;2.83;1.77;;;;;;;20.76;75.07;99368.25;4483207;32;34994;-78
2023/09/14 04:38:42;;;;;;;5.97;2.30;;;;;;;20.63;75.77;99372.53;4470840;32;33849;-78
2023/09/14 04:41:11;;;;;;;7.22;2.12;;;;;;;20.65;75.70;99381.19;4461258;32;33292;-78
2023/09/14 04:43:40;;;;;;;4.18;2.33;;;;;;;20.46;76.60;99381.41;4465681;32;33784;-79
2023/09/14 04:46:09;;;;;;;3.53;1.77;;;;;;;20.81;75.17;99386.41;4479032;32;35401;-78
2023/09/14 04:48:38;;;;;;;3.85;1.48;;;;;;;21.02;74.09;99389.53;4461927;32;34534;-78
2023/09/14 04:51:07;;;;;;;4.03;2.00;;;;;;;20.99;73.79;99390.56;4470680;32;33917;-79
2023/09/14 04:53:36;;;;;;;3.53;1.90;;;;;;;20.91;74.50;99386.72;4463351;32;35133;-79
2023/09/14 04:56:06;;;;;;;3.85;2.00;;;;;;;20.96;73.94;99395.19;4462050;32;35311;-78
2023/09/14 04:58:36;;;;;;;2.58;1.70;;;;;;;21.16;73.03;99393.97;4473735;32;33996;-78
2023/09/14 05:01:05;;;;;;;4.22;2.15;;;;;;;21.17;73.38;99388.59;4467831;32;33728;-78
2023/09/14 05:03:34;;;;;;;3.12;1.55;;;;;;;21.13;73.01;99400.28;4472239;32;33553;-79
2023/09/14 05:06:04;;;;;;;4.05;1.85;;;;;;;20.83;74.35;99395.94;4470691;32;34916;-80
2023/09/14 05:08:32;;;;;;;2.92;1.87;;;;;;;20.70;74.75;99397.59;4467518;32;33273;-79
2023/09/14 05:11:03;;;;;;;3.08;1.75;;;;;;;20.86;74.09;99401.00;4460025;32;33620;-79
2023/09/14 05:13:34;;;;;;;4.85;2.40;;;;;;;20.82;74.13;99404.75;4460647;32;33379;-79
2023/09/14 05:16:04;;;;;;;3.90;2.17;;;;;;;20.82;73.95;99398.66;4465450;32;34641;-78
2023/09/14 05:18:33;;;;;;;3.03;1.90;;;;;;;21.05;73.20;99402.53;4468190;31;34540;-79
2023/09/14 05:21:01;;;;;;;2.42;1.45;;;;;;;21.11;72.93;99407.44;4473965;32;33811;-79
2023/09/14 05:23:30;;;;;;;2.75;1.50;;;;;;;21.20;72.58;99408.66;4464549;32;35649;-78
2023/09/14 05:25:59;;;;;;;3.62;1.90;;;;;;;20.96;73.44;99403.09;4469273;32;35115;-79
2023/09/14 05:28:28;;;;;;;3.20;1.62;;;;;;;21.41;71.44;99399.44;4469634;32;34709;-78
2023/09/14 05:30:58;;;;;;;3.70;1.87;;;;;;;21.30;71.58;99407.16;4468898;32;33879;-79
2023/09/14 05:33:46;;;;;;;3.95;1.92;;;;;;;21.24;71.80;99392.56;4460303;32;34351;-79
2023/09/14 05:36:15;;;;;;;3.25;1.98;;;;;;;20.97;73.01;99407.41;4468321;32;34135;-78
2023/09/14 05:38:46;;;;;;;3.62;1.98;;;;;;;20.97;73.93;99407.41;4465342;32;34773;-78
2023/09/14 05:41:15;;;;;;;3.62;1.80;;;;;;;21.00;73.45;99404.63;4466209;32;33646;-78
2023/09/14 05:43:44;;;;;;;4.03;1.70;;;;;;;21.12;73.35;99408.25;4471597;32;35247;-79
2023/09/14 05:46:14;;;;;;;5.82;2.10;;;;;;;21.00;73.60;99412.53;4471527;32;37574;-79
2023/09/14 05:48:44;;;;;;;6.78;1.92;;;;;;;20.91;74.00;99415.72;4463084;32;34093;-77
2023/09/14 05:51:13;;;;;;;3.53;2.00;;;;;;;21.09;73.33;99414.59;4465567;32;33996;-78
2023/09/14 05:53:42;;;;;;;4.53;2.05;;;;;;;20.98;73.43;99417.03;4477608;32;34081;-79
2023/09/14 05:56:10;;;;;;;4.32;1.98;;;;;;;20.66;74.68;99418.03;4459642;32;33875;-78
2023/09/14 05:58:39;;;;;;;3.92;1.70;;;;;;;20.68;75.34;99415.28;4459937;32;33751;-77
2023/09/14 06:01:08;;;;;;;3.33;2.05;;;;;;;20.75;75.33;99415.78;4464334;32;33671;-78
2023/09/14 06:03:38;;;;;;;4.82;2.08;;;;;;;20.78;74.87;99411.19;4466971;32;35791;-78
2023/09/14 06:06:07;;;;;;;3.12;1.65;;;;;;;20.89;74.65;99416.63;4472684;32;35497;-78
2023/09/14 06:08:37;;;;;;;2.55;1.42;;;;;;;21.17;73.24;99417.62;4463963;32;33471;-78
2023/09/14 06:11:06;;;;;;;1.92;1.50;;;;;;;21.44;72.59;99415.09;4462760;32;33918;-78
2023/09/14 06:13:36;;;;;;;2.95;1.40;;;;;;;21.55;71.85;99418.84;4473018;32;36352;-78
2023/09/14 06:16:05;;;;;;;3.08;1.60;;;;;;;21.28;72.19;99420.41;4472921;32;34917;-79
2023/09/14 06:18:34;;;;;;;1.80;1.02;;;;;;;21.25;72.74;99423.25;4460665;32;33146;-79
2023/09/14 06:21:04;;;;;;;3.25;1.85;;;;;;;21.38;72.05;99418.06;4462064;32;34540;-78
2023/09/14 06:23:33;;;;;;;2.00;1.13;;;;;;;21.26;71.92;99430.25;4464090;32;33299;-79
2023/09/14 06:26:02;;;;;;;2.42;1.55;;;;;;;21.56;71.05;99431.09;4468397;32;34815;-78
2023/09/14 06:28:31;;;;;;;3.50;1.73;;;;;;;21.55;71.20;99432.88;4474370;32;33304;-78
2023/09/14 06:31:00;;;;;;;2.75;1.55;;;;;;;21.67;70.77;99432.13;4466161;32;33691;-78
2023/09/14 06:33:29;;;;;;;3.17;1.27;;;;;;;21.95;70.07;99433.84;4469010;32;33751;-79
2023/09/14 06:35:57;;;;;;;1.70;1.30;;;;;;;21.96;68.99;99434.69;4466610;32;34158;-79
2023/09/14 06:38:28;;;;;;;3.42;1.45;;;;;;;21.89;69.00;99438.66;4466651;32;33847;-79
2023/09/14 06:40:57;;;;;;;3.30;1.58;;;;;;;21.98;68.56;99440.72;4466347;32;33446;-80
2023/09/14 06:43:25;;;;;;;2.87;1.48;;;;;;;21.88;69.01;99436.97;4459772;32;33913;-79
2023/09/14 06:45:54;;;;;;;2.78;1.37;;;;;;;21.78;69.63;99441.16;4461564;32;33790;-79
2023/09/14 06:48:24;;;;;;;3.08;1.30;;;;;;;21.87;69.74;99440.56;4471454;32;34399;-79
2023/09/14 06:50:53;;;;;;;3.30;1.77;;;;;;;21.96;69.20;99445.25;4471060;32;34754;-79
2023/09/14 06:53:22;;;;;;;3.25;1.37;;;;;;;22.24;68.25;99451.44;4469327;32;34509;-79
2023/09/14 06:55:52;;;;;;;4.55;1.90;;;;;;;22.29;68.12;99451.97;4463382;32;34087;-78
2023/09/14 06:58:21;;;;;;;3.33;1.60;;;;;;;22.54;67.03;99454.72;4465533;32;34209;-78
2023/09/14 07:00:50;;;;;;;3.03;1.45;;;;;;;22.62;65.98;99463.94;4466517;32;34861;-78
2023/09/14 07:03:19;;;;;;;2.83;1.58;;;;;;;22.48;67.09;99465.69;4459787;32;33485;-78
2023/09/14 07:05:48;;;;;;;3.83;1.70;;;;;;;22.61;66.51;99470.16;4459762;32;33438;-79
2023/09/14 07:08:17;;;;;;;2.97;1.60;;;;;;;23.02;65.38;99479.78;4457013;32;33587;-80
2023/09/14 07:10:45;;;;;;;2.92;1.50;;;;;;;23.06;65.38;99478.62;4466865;32;33409;-79
2023/09/14 07:13:15;;;;;;;2.65;1.17;;;;;;;23.10;64.41;99488.91;4464836;31;33678;-79
2023/09/14 07:15:44;;;;;;;3.08;1.30;;;;;;;22.90;64.69;99487.53;4478811;31;33184;-78
2023/09/14 07:18:26;;;;;;;1.90;1.25;;;;;;;22.62;65.63;99495.66;4473157;32;34138;-79
2023/09/14 07:20:56;;;;;;;3.55;1.85;;;;;;;22.83;65.38;99491.56;4475949;32;33153;-78
2023/09/14 07:23:25;;;;;;;3.10;1.45;;;;;;;22.91;65.75;99491.91;4481226;31;34462;-78
2023/09/14 07:25:54;;;;;;;2.62;1.27;;;;;;;23.28;64.89;99489.41;4469870;31;33620;-79
2023/09/14 07:28:24;;;;;;;1.75;1.20;;;;;;;23.33;63.93;99492.59;4475589;31;34080;-79
2023/09/14 07:30:53;;;;;;;2.40;1.20;;;;;;;23.53;62.86;99493.84;4469274;32;33151;-78
2023/09/14 07:33:25;;;;;;;3.25;1.90;;;;;;;23.32;63.74;99504.16;4480992;32;35302;-78
2023/09/14 07:35:54;;;;;;;2.60;1.80;;;;;;;23.08;64.96;99500.53;4475836;32;34278;-77
2023/09/14 07:38:23;;;;;;;3.55;1.62;;;;;;;22.99;64.72;99510.78;4472153;32;33650;-78
2023/09/14 07:40:54;;;;;;;;;;;;;;;23.04;65.08;99506.97;4470621;32;33891;-79
2023/09/14 07:43:25;;;;;;;2.87;1.58;;;;;;;22.97;65.48;99514.44;4461558;32;166231;-79
2023/09/14 07:45:55;;;;;;;2.05;1.35;;;;;;;22.60;66.75;99513.41;4472816;32;33366;-78
2023/09/14 07:48:24;;;;;;;2.75;1.60;;;;;;;22.68;66.82;99519.88;4464915;32;33190;-78
2023/09/14 07:50:53;;;;;;;3.15;1.60;;;;;;;22.73;66.80;99525.69;4462707;32;33838;-78
2023/09/14 07:53:22;;;;;;;3.70;2.42;;;;;;;22.77;67.25;99521.06;4473457;32;33994;-78
2023/09/14 07:55:54;;;;;;;3.25;1.55;;;;;;;22.91;66.48;99528.09;4481400;32;33687;-77
2023/09/14 07:58:24;;;;;;;3.12;1.67;;;;;;;23.05;66.87;99519.25;4474180;32;34228;-78
2023/09/14 08:00:52;;;;;;;3.70;2.23;;;;;;;23.12;66.19;99525.81;4474848;32;33351;-78
2023/09/14 08:03:22;;;;;;;4.70;1.87;;;;;;;23.39;64.51;99526.59;4475757;32;33521;-78
2023/09/14 08:05:52;;;;;;;4.12;2.08;;;;;;;23.31;64.76;99523.59;4476033;32;33355;-78
2023/09/14 08:08:21;;;;;;;4.22;2.10;;;;;;;23.21;65.01;99525.19;4480009;32;35217;-78
2023/09/14 08:10:50;;;;;;;4.18;1.95;;;;;;;23.42;64.34;99531.66;4475602;32;34407;-78
2023/09/14 08:13:19;;;;;;;3.72;2.05;;;;;;;23.55;64.11;99536.13;4475279;32;34019;-78
2023/09/14 08:15:49;;;;;;;2.33;1.45;;;;;;;23.56;64.33;99524.59;4476494;32;33488;-78
2023/09/14 08:18:19;;;;;;;3.28;1.80;;;;;;;23.44;63.80;99534.22;4481336;32;33605;-79
2023/09/14 08:20:48;;;;;;;3.65;2.10;;;;;;;23.47;64.07;99536.66;4474935;32;33554;-78
2023/09/14 08:23:16;;;;;;;2.92;1.67;;;;;;;23.17;64.71;99531.62;4474678;32;33707;-79
2023/09/14 08:25:48;;;;;;;3.45;2.08;;;;;;;23.09;65.43;99539.25;4473815;32;33846;-78
2023/09/14 08:28:18;;;;;;;2.08;1.35;;;;;;;23.27;65.29;99530.09;4474813;32;33279;-79
2023/09/14 08:30:48;;;;;;;4.68;2.20;;;;;;;23.26;65.98;99540.78;4480178;32;34473;-79
2023/09/14 08:33:17;;;;;;;2.47;1.50;;;;;;;23.38;65.29;99534.63;4474686;32;34483;-79
2023/09/14 08:35:49;;;;;;;6.25;2.58;;;;;;;23.58;64.02;99533.25;4477259;32;33898;-80
2023/09/14 08:38:18;;;;;;;4.05;2.00;;;;;;;23.73;63.98;99536.66;4477662;32;33264;-78
2023/09/14 08:40:51;;;;;;;5.22;2.67;;;;;;;23.61;63.44;99536.53;4483144;32;33561;-78
2023/09/14 08:43:21;;;;;;;4.32;2.20;;;;;;;23.75;62.64;99535.63;4477277;32;33642;-79
2023/09/14 08:45:51;;;;;;;4.43;1.95;;;;;;;23.76;62.69;99537.28;4472394;32;33943;-78
2023/09/14 08:48:22;;;;;;;4.45;2.17;;;;;;;24.09;62.39;99535.87;4477978;32;33659;-78
2023/09/14 08:50:51;;;;;;;4.78;2.30;;;;;;;24.03;62.28;99538.94;4478287;32;35998;-78
2023/09/14 08:53:20;;;;;;;3.33;1.92;;;;;;;24.35;60.73;99539.25;4472552;32;34037;-78
2023/09/14 08:55:50;;;;;;;3.92;2.17;;;;;;;24.19;60.42;99544.84;4461791;32;33902;-78
2023/09/14 08:58:19;;;;;;;3.20;1.83;;;;;;;24.24;61.26;99541.88;4462185;32;33545;-79
2023/09/14 09:00:49;;;;;;;3.95;1.65;;;;;;;24.36;60.06;99540.12;4461754;32;34668;-79
2023/09/14 09:03:19;;;;;;;5.28;1.95;;;;;;;24.19;60.60;99539.53;4467448;32;33977;-79
2023/09/14 09:05:49;;;;;;;2.83;2.05;;;;;;;24.38;60.57;99532.88;4465551;32;34362;-79
2023/09/14 09:08:20;;;;;;;3.10;1.85;;;;;;;24.71;58.97;99548.16;4470543;32;34283;-79
2023/09/14 09:10:49;;;;;;;4.62;2.08;;;;;;;24.89;57.90;99536.19;4476417;32;33637;-78
2023/09/14 09:13:22;;;;;;;3.83;1.90;;;;;;;24.77;58.31;99541.56;4474748;32;34598;-78
2023/09/14 09:15:50;;;;;;;1.83;1.10;;;;;;;24.83;58.62;99533.97;4474384;32;35010;-78
2023/09/14 09:18:21;;;;;;;3.00;1.70;;;;;;;25.05;58.92;99541.16;4476999;32;33094;-79
2023/09/14 09:20:50;;;;;;;3.42;1.73;;;;;;;25.31;56.19;99538.38;4469695;32;33803;-79
2023/09/14 09:23:20;;;;;;;1.80;1.10;;;;;;;25.30;55.92;99529.56;4463641;32;33626;-78
2023/09/14 09:25:52;;;;;;;3.30;1.70;;;;;;;25.12;56.08;99526.47;4471439;32;33580;-78
2023/09/14 09:28:28;;;;;;;3.28;2.10;;;;;;;25.05;56.57;99527.91;4469733;32;33907;-78
2023/09/14 09:30:57;;;;;;;2.90;1.60;;;;;;;25.00;56.46;99530.06;4469564;32;34319;-79
2023/09/14 09:33:37;;;;;;;3.42;1.58;;;;;;;24.99;57.11;99531.03;4469311;32;33534;-78
2023/09/14 09:36:16;;;;;;;3.83;1.80;;;;;;;24.95;57.17;99534.88;4460973;32;34950;-79
2023/09/14 09:38:46;;;;;;;2.85;1.42;;;;;;;24.97;56.68;99532.94;4469431;32;34478;-78
2023/09/14 09:41:16;;;;;;;2.67;1.27;;;;;;;24.99;54.74;99533.69;4477420;32;33045;-78
2023/09/14 09:43:45;;;;;;;2.67;1.37;;;;;;;25.18;53.65;99535.81;4476921;32;33423;-78
2023/09/14 09:46:14;;;;;;;2.78;1.42;;;;;;;25.22;53.49;99533.78;4466824;32;34651;-79
2023/09/14 09:48:45;;;;;;;2.53;1.67;;;;;;;25.45;54.14;99532.00;4474900;32;33312;-78
2023/09/14 09:51:14;;;;;;;;;;;;;;;25.21;55.25;99545.38;4481142;32;33495;-79
2023/09/14 09:54:02;;;;;;;2.55;1.33;;;;;;;25.16;55.71;99542.19;4472951;32;34168;-78
2023/09/14 09:56:30;;;;;;;2.92;1.75;;;;;;;25.00;55.74;99547.78;4471240;32;33336;-78
2023/09/14 09:59:02;;;;;;;3.03;1.52;;;;;;;24.72;57.05;99536.63;4473660;32;33026;-78
2023/09/14 10:01:31;;;;;;;5.80;1.95;;;;;;;24.85;56.77;99547.16;4473709;32;33521;-79
2023/09/14 10:04:02;;;;;;;3.97;1.95;;;;;;;24.81;57.13;99545.66;4475461;32;34500;-79
2023/09/14 10:06:31;;;;;;;2.33;1.40;;;;;;;24.79;58.27;99540.50;4469886;32;33935;-78
2023/09/14 10:09:04;;;;;;;2.70;1.65;;;;;;;25.06;57.86;99540.22;4469680;32;33581;-78
2023/09/14 10:11:34;;;;;;;4.15;1.52;;;;;;;25.34;56.89;99535.47;4474648;32;34556;-79
2023/09/14 10:14:03;;;;;;;3.62;1.80;;;;;;;25.52;55.64;99535.87;4480275;32;34825;-78
2023/09/14 10:16:37;;;;;;;2.42;1.15;;;;;;;25.75;56.50;99537.56;4475548;32;33387;-78
2023/09/14 10:19:08;;;;;;;2.92;1.45;;;;;;;25.84;54.64;99535.16;4473319;32;34034;-78
2023/09/14 10:21:39;;;;;;;2.75;1.45;;;;;;;25.91;54.83;99542.56;4474809;32;33397;-79
2023/09/14 10:24:10;;;;;;;2.97;1.70;;;;;;;25.89;54.41;99544.47;4474464;32;34382;-78
2023/09/14 10:26:39;;;;;;;2.87;1.48;;;;;;;25.51;55.25;99550.94;4478637;32;33025;-78
2023/09/14 10:29:09;;;;;;;3.92;2.08;;;;;;;25.47;55.29;99552.16;4473798;32;34648;-79
2023/09/14 10:31:40;;;;;;;3.58;1.90;;;;;;;25.38;55.68;99549.38;4473583;32;33155;-79
2023/09/14 10:34:11;;;;;;;2.03;1.20;;;;;;;25.17;55.79;99550.03;4472669;32;33977;-79
2023/09/14 10:36:41;;;;;;;2.35;1.50;;;;;;;25.39;55.92;99545.75;4478823;32;33268;-79
2023/09/14 10:39:12;;;;;;;3.40;1.55;;;;;;;25.19;56.34;99547.28;4474940;32;33490;-79
2023/09/14 10:41:41;;;;;;;3.12;1.62;;;;;;;25.45;55.63;99546.13;4473851;32;33570;-79
2023/09/14 10:44:09;;;;;;;4.15;2.00;;;;;;;25.60;55.31;99535.28;4471536;32;33894;-78
2023/09/14 10:46:41;;;;;;;2.03;1.30;;;;;;;25.74;55.62;99535.87;4473033;32;33678;-79
2023/09/14 10:49:12;;;;;;;2.15;1.25;;;;;;;25.73;53.78;99536.00;4478487;32;33105;-78
2023/09/14 10:51:42;;;;;;;2.42;1.35;;;;;;;25.87;53.68;99546.41;4469609;32;34373;-79
2023/09/14 10:54:11;;;;;;;5.97;2.30;;;;;;;25.77;53.26;99540.09;4469631;32;34432;-78
2023/09/14 10:56:40;;;;;;;1.67;1.00;;;;;;;25.64;55.30;99547.38;4470830;32;34890;-79
2023/09/14 10:59:09;;;;;;;2.40;1.30;;;;;;;25.50;54.46;99557.25;4479460;32;33839;-78
2023/09/14 11:01:46;;;;;;;1.42;0.90;;;;;;;25.24;55.00;99551.28;4474328;32;33864;-79
2023/09/14 11:04:24;;;;;;;2.35;1.30;;;;;;;24.86;55.14;99549.69;4473283;32;33643;-78
2023/09/14 11:06:56;;;;;;;5.70;1.55;;;;;;;24.91;56.71;99547.53;4474040;32;34200;-79
2023/09/14 11:09:25;;;;;;;1.98;1.27;;;;;;;24.79;57.05;99550.25;4474701;32;33929;-78
2023/09/14 11:11:55;;;;;;;2.45;1.40;;;;;;;24.64;56.63;99557.53;4480004;32;34007;-79
2023/09/14 11:14:28;;;;;;;3.03;1.55;;;;;;;24.85;55.54;99563.91;4474260;32;33501;-78
2023/09/14 11:16:58;;;;;;;;;;;;;;;24.93;55.23;99555.38;4474572;32;33807;-79
2023/09/14 11:19:48;;;;;;;1.95;1.23;;;;;;;24.92;55.25;99559.00;4473642;32;33231;-78
2023/09/14 11:22:27;;;;;;;2.42;1.15;;;;;;;25.05;55.52;99566.87;4470944;32;34354;-79
2023/09/14 11:25:00;;;;;;;2.53;1.20;;;;;;;25.33;55.45;99563.00;4474912;32;33608;-80
2023/09/14 11:27:40;;;;;;;1.37;0.82;;;;;;;24.99;56.48;99552.25;4475286;32;34481;-78
2023/09/14 11:30:15;;;;;;;1.67;1.30;;;;;;;25.46;56.26;99569.06;4471893;32;33875;-78
2023/09/14 11:32:45;;;;;;;2.85;1.42;;;;;;;25.47;55.48;99560.13;4473411;32;32917;-79
2023/09/14 11:35:18;;;;;;;4.65;1.37;;;;;;;25.62;54.64;99567.88;4473828;32;32623;-79
2023/09/14 11:37:51;;;;;;;1.45;0.85;;;;;;;25.47;54.94;99565.44;4478900;32;34810;-79
2023/09/14 11:40:29;;;;;;;1.73;1.00;;;;;;;25.59;54.00;99573.41;4479732;32;33424;-79
2023/09/14 11:43:24;;;;;;;1.80;1.10;;;;;;;25.47;54.22;99572.59;4471926;32;33383;-78
2023/09/14 11:46:17;;;;;;;2.15;1.15;;;;;;;25.57;53.97;99568.25;4473620;32;34577;-79
2023/09/14 11:48:54;;;;;;;2.45;1.25;;;;;;;25.21;55.06;99569.25;4473840;32;33949;-79